Platzwetter & Webcam am Flugplatz Wels

Flugwetter Linz LOWL

[Quelle: ADDS]
METAR
LOWL 240320Z VRB02KT 6000 FEW044 BKN070 09/08 Q1020 TEMPO 1200 BCFG =
TAF
LOWL 232315Z 2400/2424 VRB02KT 9999 SCT050 BKN120 TX16/2413Z TN09/2404Z PROB30 TEMPO 2402/2407 1200 BCFG BKN040 TEMPO 2408/2424 -SHRA BKN050 =

Flugwetter Salzburg LOWS

[Quelle: ADDS]
METAR
LOWS 240320Z AUTO 31002KT 9999 FEW060 BKN180 08/08 Q1020 =
TAF
LOWS 232315Z 2400/2424 VRB02KT 9999 SCT030 BKN050 TX15/2412Z TN11/2404Z TEMPO 2402/2414 SHRA FEW030TCU BKN040 PROB30 TEMPO 2406/2412 4000 TSRA FEW030CB BKN040 BECMG 2416/2418 15007KT PROB30 TEMPO 2422/2424 VRB02KT 1200 BCFG FEW001 =

Webcam - letzten 24 Stunden

  • 0
  • 1
  • 2
  • 3
  • 4
  • 5
  • 6
  • 7
  • 8
  • 9
  • 10
  • 11
  • 12
  • 13
  • 14
  • 15
  • 16
  • 17
  • 18
  • 19
  • 20
  • 21
  • 22
  • 23

    JU 52 Nostalgie-Rundflüge - hier am Flugplatz Wels!

    Tickets, Termine und Infos, hier am Flugplatz Wels. Tickethotline +43 7242 26499 0

    Pilot für einen Tag - Erfülle Dir den Traum vom Fliegen!

    Werde einen Tag lang Pilot bei und mit dem Fliegerclub Weiße Möwe in Wels!

    Stadt - Wels

    Ausflugsziele & Sehenswürdigkeiten
    in Wels und Umgebung